Time;durP1;ratioP1;P1;durP2;ratioP2;P2;SDS_P1;SDS_P2;PMS_P1;PMS_P2;Temp;Humidity;BMP_temperature;BMP_pressure;BME280_temperature;BME280_humidity;BME280_pressure;Samples;Min_cycle;Max_cycle;Signal;HPM_P1;HPM_P2
2022/03/14 00:00:19;;;;;;;2.60;2.28;;;;;;;10.62;62.20;101442.31;4988835;28;20039;-87
2022/03/14 00:02:45;;;;;;;2.30;2.10;;;;;;;10.57;62.46;101438.94;4988929;28;20450;-87
2022/03/14 00:05:14;;;;;;;2.50;2.20;;;;;;;10.56;62.65;101439.03;4990484;28;20033;-87
2022/03/14 00:07:44;;;;;;;2.30;2.08;;;;;;;10.54;62.47;101451.53;4973290;28;20045;-87
2022/03/14 00:10:10;;;;;;;2.58;2.08;;;;;;;10.52;62.67;101459.56;4984845;28;20180;-88
2022/03/14 00:12:36;;;;;;;2.22;2.03;;;;;;;10.44;62.97;101443.91;4986973;28;20034;-86
2022/03/14 00:15:03;;;;;;;2.22;2.00;;;;;;;10.50;62.84;101461.44;4990670;28;20045;-87
2022/03/14 00:17:29;;;;;;;2.47;2.28;;;;;;;10.48;63.03;101460.63;4990516;28;20066;-88
2022/03/14 00:19:57;;;;;;;2.70;2.08;;;;;;;10.48;63.13;101466.81;4979158;28;20109;-88
2022/03/14 00:22:22;;;;;;;3.75;2.38;;;;;;;10.45;63.40;101472.28;4971751;28;20034;-88
2022/03/14 00:24:48;;;;;;;2.28;2.03;;;;;;;10.44;63.54;101477.63;4990129;28;20384;-86
2022/03/14 00:27:13;;;;;;;4.30;2.40;;;;;;;10.40;63.30;101471.56;4985566;28;20026;-87
2022/03/14 00:29:39;;;;;;;2.67;2.15;;;;;;;10.31;63.49;101468.41;4988346;28;20200;-87
2022/03/14 00:32:05;;;;;;;3.47;2.60;;;;;;;10.24;63.97;101457.09;4973056;28;20456;-88
2022/03/14 00:34:30;;;;;;;3.45;2.25;;;;;;;10.36;63.94;101477.06;4982591;28;20037;-88
2022/03/14 00:36:55;;;;;;;2.70;2.42;;;;;;;10.36;63.95;101487.72;4987708;28;20041;-87
2022/03/14 00:39:21;;;;;;;2.67;2.40;;;;;;;10.28;64.38;101480.03;4987953;28;20206;-87
2022/03/14 00:41:46;;;;;;;3.28;2.30;;;;;;;10.27;64.32;101480.09;4988920;28;20522;-87
2022/03/14 00:44:14;;;;;;;2.75;2.47;;;;;;;10.26;64.31;101481.03;4990172;28;20053;-87
2022/03/14 00:46:39;;;;;;;3.28;2.75;;;;;;;10.27;64.25;101488.94;4989353;28;20563;-87
2022/03/14 00:49:04;;;;;;;2.78;2.45;;;;;;;10.25;64.33;101489.97;4985432;28;20169;-87
2022/03/14 00:51:30;;;;;;;2.55;2.35;;;;;;;10.30;64.50;101499.47;4984381;28;20480;-87
2022/03/14 00:53:55;;;;;;;2.45;2.20;;;;;;;10.28;64.59;101497.78;4988570;28;20034;-87
2022/03/14 00:56:21;;;;;;;3.20;2.33;;;;;;;10.22;64.62;101486.44;4990488;28;20152;-87
2022/03/14 00:58:46;;;;;;;2.92;2.30;;;;;;;10.20;64.72;101501.63;4989937;28;20030;-86
2022/03/14 01:01:11;;;;;;;2.75;2.47;;;;;;;10.20;65.00;101504.28;4973348;28;20113;-87
2022/03/14 01:03:37;;;;;;;3.08;2.72;;;;;;;10.20;65.62;101519.38;4982027;28;20026;-88
2022/03/14 01:06:02;;;;;;;3.40;2.65;;;;;;;10.16;65.41;101518.63;4989557;28;20026;-87
2022/03/14 01:08:28;;;;;;;2.67;2.30;;;;;;;10.05;65.66;101506.66;4989373;28;20030;-87
2022/03/14 01:10:53;;;;;;;2.85;2.45;;;;;;;10.14;65.71;101527.56;4978582;28;20080;-87
2022/03/14 01:13:18;;;;;;;3.08;2.60;;;;;;;10.12;65.80;101524.97;4988763;28;20046;-88
2022/03/14 01:15:44;;;;;;;2.80;2.50;;;;;;;10.15;65.87;101527.50;4978362;28;20408;-87
2022/03/14 01:18:10;;;;;;;3.55;2.42;;;;;;;10.12;66.07;101532.09;4968669;28;20550;-88
2022/03/14 01:20:35;;;;;;;3.20;2.60;;;;;;;10.08;66.18;101526.03;4976029;28;20026;-87
2022/03/14 01:23:01;;;;;;;3.08;2.45;;;;;;;10.05;66.23;101530.59;4977361;28;20041;-86
2022/03/14 01:25:26;;;;;;;2.65;2.38;;;;;;;10.08;66.41;101547.31;4971248;28;20363;-88
2022/03/14 01:27:52;;;;;;;3.05;2.72;;;;;;;10.04;66.25;101545.69;4978986;28;20033;-88
2022/03/14 01:30:19;;;;;;;3.20;2.60;;;;;;;10.07;66.58;101545.53;4982181;28;20092;-87
2022/03/14 01:32:45;;;;;;;2.75;2.55;;;;;;;10.04;66.82;101556.31;4981977;28;20049;-87
2022/03/14 01:35:10;;;;;;;2.85;2.60;;;;;;;10.05;66.80;101554.53;4987218;28;20484;-87
2022/03/14 01:37:35;;;;;;;2.90;2.58;;;;;;;10.04;66.66;101552.78;4988494;28;20018;-86
2022/03/14 01:40:01;;;;;;;4.80;2.78;;;;;;;10.01;67.21;101551.09;4986180;28;20486;-85
2022/03/14 01:42:26;;;;;;;4.30;3.05;;;;;;;9.88;66.71;101523.25;4981612;28;20505;-86
2022/03/14 01:44:51;;;;;;;3.75;2.78;;;;;;;9.89;67.35;101528.50;4984242;28;20067;-86
2022/03/14 01:47:17;;;;;;;3.55;2.97;;;;;;;9.87;67.42;101541.00;4968642;28;20031;-87
2022/03/14 01:49:44;;;;;;;3.92;2.63;;;;;;;9.90;67.37;101558.59;4987640;28;20487;-87
2022/03/14 01:52:11;;;;;;;3.53;2.53;;;;;;;9.84;67.65;101546.41;4986227;28;20050;-87
2022/03/14 01:54:40;;;;;;;4.15;2.97;;;;;;;9.87;67.96;101566.72;4989151;28;20061;-87
2022/03/14 01:57:07;;;;;;;3.72;3.08;;;;;;;9.84;68.04;101566.81;4988755;28;20081;-87
2022/03/14 01:59:34;;;;;;;3.28;2.72;;;;;;;9.85;68.02;101563.22;4976590;28;20109;-87
2022/03/14 02:02:00;;;;;;;3.75;2.97;;;;;;;9.84;68.11;101569.47;4988861;28;20027;-87
2022/03/14 02:04:26;;;;;;;3.42;3.10;;;;;;;9.88;68.03;101577.28;4971693;28;20695;-87
2022/03/14 02:06:57;;;;;;;3.67;3.10;;;;;;;9.81;68.10;101558.94;4987952;28;20125;-89
2022/03/14 02:09:22;;;;;;;3.42;2.80;;;;;;;9.83;68.08;101563.28;4979391;28;20555;-87
2022/03/14 02:11:57;;;;;;;4.00;3.10;;;;;;;9.91;67.89;101573.66;4978051;28;20026;-87
2022/03/14 02:14:23;;;;;;;3.38;2.70;;;;;;;9.89;68.43;101576.34;4988267;28;20049;-87
2022/03/14 02:16:49;;;;;;;3.40;3.00;;;;;;;9.89;68.28;101579.00;4988749;28;20431;-88
2022/03/14 02:19:15;;;;;;;3.55;3.20;;;;;;;9.79;68.61;101574.09;4981492;28;20035;-87
2022/03/14 02:21:41;;;;;;;3.40;3.08;;;;;;;9.84;68.52;101588.94;4970302;28;20396;-88
2022/03/14 02:24:07;;;;;;;4.10;3.03;;;;;;;9.85;68.64;101587.16;4988020;28;20034;-88
2022/03/14 02:26:40;;;;;;;3.65;2.97;;;;;;;9.84;68.73;101586.28;5002307;28;20439;-88
2022/03/14 02:29:08;;;;;;;3.40;2.75;;;;;;;9.83;69.08;101594.34;4984141;28;20030;-88
2022/03/14 02:31:37;;;;;;;3.83;3.00;;;;;;;9.81;68.94;101594.38;4977459;28;20397;-87
2022/03/14 02:34:03;;;;;;;3.42;3.03;;;;;;;9.79;69.17;101593.56;4983964;28;20059;-87
2022/03/14 02:36:29;;;;;;;3.17;2.88;;;;;;;9.75;69.17;101588.41;4990172;28;20377;-88
2022/03/14 02:38:54;;;;;;;3.45;3.15;;;;;;;9.80;69.38;101603.28;4989325;28;20014;-88
2022/03/14 02:41:22;;;;;;;4.35;3.22;;;;;;;9.79;69.19;101609.53;4992147;28;20069;-86
2022/03/14 02:43:47;;;;;;;3.97;3.40;;;;;;;9.69;69.61;101602.78;4991225;28;20868;-87
2022/03/14 02:46:13;;;;;;;4.65;3.65;;;;;;;9.72;69.52;101616.84;4981951;28;20058;-87
2022/03/14 02:48:40;;;;;;;4.28;3.88;;;;;;;9.70;69.55;101617.84;4987210;28;20031;-88
2022/03/14 02:51:05;;;;;;;4.15;3.70;;;;;;;9.60;69.97;101611.94;4973211;28;20420;-87
2022/03/14 02:53:30;;;;;;;4.53;3.70;;;;;;;9.58;69.75;101607.63;4985570;28;20018;-87
2022/03/14 02:55:56;;;;;;;4.00;3.60;;;;;;;9.58;70.11;101626.22;4991852;28;20034;-86
2022/03/14 02:58:21;;;;;;;5.43;3.70;;;;;;;9.51;69.95;101614.06;4981985;28;20664;-88
2022/03/14 03:00:46;;;;;;;3.75;3.35;;;;;;;9.55;70.36;101631.63;4989876;28;20026;-87
2022/03/14 03:03:13;;;;;;;4.32;3.75;;;;;;;9.41;70.00;101611.72;4985883;28;20033;-87
2022/03/14 03:05:43;;;;;;;5.82;3.90;;;;;;;9.43;70.46;101631.13;4991015;28;20049;-88
2022/03/14 03:08:09;;;;;;;5.13;3.70;;;;;;;9.41;70.51;101638.28;4990522;28;20031;-87
2022/03/14 03:10:34;;;;;;;3.67;3.38;;;;;;;9.39;70.97;101649.88;4986988;28;20030;-87
2022/03/14 03:13:00;;;;;;;3.63;3.28;;;;;;;9.36;70.59;101649.97;4986172;28;20045;-88
2022/03/14 03:15:25;;;;;;;4.55;3.63;;;;;;;9.31;70.17;101643.94;4984657;28;20114;-87
2022/03/14 03:17:52;;;;;;;3.80;3.17;;;;;;;9.21;70.88;101651.34;4975278;28;20116;-87
2022/03/14 03:20:18;;;;;;;3.65;3.30;;;;;;;9.21;70.95;101673.47;4984830;28;20030;-87
2022/03/14 03:22:43;;;;;;;3.83;3.30;;;;;;;9.27;71.01;101685.66;4977186;28;20084;-87
2022/03/14 03:25:08;;;;;;;3.45;3.15;;;;;;;9.24;71.45;101685.78;4982410;28;20266;-87
2022/03/14 03:27:35;;;;;;;3.60;3.30;;;;;;;9.13;71.59;101683.47;4991322;28;20407;-87
2022/03/14 03:30:02;;;;;;;3.40;3.10;;;;;;;9.17;71.62;101709.00;4983867;28;20038;-87
2022/03/14 03:32:27;;;;;;;4.03;3.50;;;;;;;9.17;71.93;101700.19;4989324;28;20088;-87
2022/03/14 03:34:53;;;;;;;3.53;3.17;;;;;;;9.16;71.59;101706.41;4990707;28;20382;-87
2022/03/14 03:37:18;;;;;;;3.97;3.58;;;;;;;9.11;72.20;101713.63;4982084;28;20066;-87
2022/03/14 03:39:44;;;;;;;3.33;3.03;;;;;;;9.09;71.86;101715.47;4979793;28;20491;-87
2022/03/14 03:42:10;;;;;;;4.30;3.47;;;;;;;9.06;72.24;101715.56;4990215;28;20432;-88
2022/03/14 03:44:35;;;;;;;3.88;3.40;;;;;;;8.98;72.55;101715.78;4986779;28;20034;-88
2022/03/14 03:47:01;;;;;;;4.00;3.60;;;;;;;8.98;72.52;101729.06;4970400;28;20528;-88
2022/03/14 03:49:27;;;;;;;4.25;3.50;;;;;;;8.87;72.85;101717.94;4978222;28;20043;-87
2022/03/14 03:51:52;;;;;;;4.50;3.85;;;;;;;8.88;73.54;101740.91;4972692;28;20049;-87
2022/03/14 03:54:18;;;;;;;4.65;3.67;;;;;;;8.85;74.62;101744.50;4990195;28;20426;-88
2022/03/14 03:56:43;;;;;;;3.70;3.40;;;;;;;8.69;76.49;101752.06;4988093;28;20291;-87
2022/03/14 03:59:08;;;;;;;5.57;4.30;;;;;;;8.43;78.83;101758.06;4984758;28;20030;-88
2022/03/14 04:01:33;;;;;;;5.15;4.63;;;;;;;8.20;80.43;101766.63;4984815;28;20054;-87
2022/03/14 04:04:01;;;;;;;5.00;4.50;;;;;;;8.07;81.65;101765.22;4971809;28;20031;-87
2022/03/14 04:06:30;;;;;;;6.90;4.72;;;;;;;7.96;82.92;101769.91;4985330;28;20030;-88
2022/03/14 04:08:56;;;;;;;5.30;4.72;;;;;;;7.94;83.27;101769.97;4980813;28;20143;-87
2022/03/14 04:11:22;;;;;;;7.72;4.88;;;;;;;7.87;84.08;101771.00;4981688;28;20053;-87
2022/03/14 04:13:58;;;;;;;5.15;4.65;;;;;;;7.89;84.00;101774.47;4989838;28;20399;-87
2022/03/14 04:16:24;;;;;;;4.90;4.45;;;;;;;7.89;84.12;101778.91;4984185;28;20567;-88
2022/03/14 04:18:50;;;;;;;5.28;4.60;;;;;;;8.02;83.48;101784.78;4988395;28;20476;-88
2022/03/14 04:21:16;;;;;;;5.28;4.75;;;;;;;8.08;83.17;101795.25;4990523;28;20042;-87
2022/03/14 04:23:42;;;;;;;9.32;4.57;;;;;;;8.12;83.12;101802.22;4990381;28;20030;-88
2022/03/14 04:26:07;;;;;;;6.25;4.97;;;;;;;8.11;82.65;101797.78;4990024;28;20052;-87
2022/03/14 04:28:36;;;;;;;5.07;4.50;;;;;;;8.11;82.52;101790.75;4980491;28;20026;-87
2022/03/14 04:31:02;;;;;;;5.57;4.53;;;;;;;8.16;82.34;101803.88;4987456;28;20336;-87
2022/03/14 04:33:27;;;;;;;6.95;4.80;;;;;;;8.14;81.73;101800.38;4989912;28;20038;-87
2022/03/14 04:35:53;;;;;;;5.32;4.70;;;;;;;8.23;82.16;101816.03;4972985;28;20029;-88
2022/03/14 04:38:19;;;;;;;8.02;4.85;;;;;;;8.24;81.73;101823.13;4973005;28;20085;-88
2022/03/14 04:40:44;;;;;;;5.50;4.90;;;;;;;8.24;81.86;101823.97;4987437;28;20391;-87
2022/03/14 04:43:10;;;;;;;6.13;4.68;;;;;;;8.23;81.36;101822.25;4982571;28;20564;-87
2022/03/14 04:45:36;;;;;;;5.78;4.75;;;;;;;8.18;81.53;101818.81;4987653;28;20030;-87
2022/03/14 04:48:04;;;;;;;8.82;5.47;;;;;;;8.17;81.70;101826.81;4988668;28;20266;-88
2022/03/14 04:50:29;;;;;;;7.60;4.90;;;;;;;8.13;81.85;101827.81;4989625;28;20037;-87
2022/03/14 04:52:55;;;;;;;7.53;4.93;;;;;;;8.19;81.28;101831.19;4985596;28;20027;-87
2022/03/14 04:55:20;;;;;;;5.55;4.90;;;;;;;8.17;81.20;101842.75;4985231;28;20034;-88
2022/03/14 04:57:46;;;;;;;5.90;5.13;;;;;;;8.17;81.18;101850.69;4986641;28;20130;-87
2022/03/14 05:00:12;;;;;;;6.07;4.85;;;;;;;8.16;81.07;101847.16;4978712;28;20030;-88
2022/03/14 05:02:37;;;;;;;6.30;5.18;;;;;;;7.92;80.92;101814.16;4989644;28;20396;-87
2022/03/14 05:05:03;;;;;;;7.03;5.15;;;;;;;7.98;80.94;101829.94;4986309;28;20023;-87
2022/03/14 05:07:28;;;;;;;5.53;4.95;;;;;;;8.21;80.78;101868.28;4981969;28;20034;-87
2022/03/14 05:09:54;;;;;;;6.97;5.55;;;;;;;8.17;80.55;101863.94;4984155;28;20065;-87
2022/03/14 05:12:19;;;;;;;9.50;5.13;;;;;;;8.23;80.06;101874.38;4988319;28;20034;-87
2022/03/14 05:14:44;;;;;;;6.18;5.57;;;;;;;8.19;79.85;101878.94;4988271;28;20062;-87
2022/03/14 05:17:10;;;;;;;8.60;6.05;;;;;;;8.18;80.35;101887.78;4987303;28;20554;-87
2022/03/14 05:19:36;;;;;;;9.85;6.78;;;;;;;8.20;79.71;101903.66;4988599;28;20083;-87
2022/03/14 05:22:02;;;;;;;8.60;7.05;;;;;;;8.18;79.66;101901.03;4970871;28;20031;-87
2022/03/14 05:24:27;;;;;;;8.75;7.15;;;;;;;8.17;79.49;101887.81;4985726;28;20442;-88
2022/03/14 05:26:54;;;;;;;10.82;7.68;;;;;;;8.17;79.99;101904.59;4987976;28;20527;-86
2022/03/14 05:29:20;;;;;;;13.40;7.95;;;;;;;8.15;79.82;101910.84;4971790;28;20499;-86
2022/03/14 05:31:46;;;;;;;17.58;9.23;;;;;;;8.13;80.09;101917.97;4970008;28;20038;-86
2022/03/14 05:34:12;;;;;;;13.90;8.43;;;;;;;8.14;80.07;101922.34;4976502;28;20026;-86
2022/03/14 05:36:37;;;;;;;12.35;8.25;;;;;;;8.14;79.94;101928.53;4974291;28;20033;-87
2022/03/14 05:39:04;;;;;;;9.35;7.70;;;;;;;8.10;80.05;101923.34;4979378;28;20042;-86
2022/03/14 05:41:29;;;;;;;14.07;9.63;;;;;;;8.14;79.61;101932.97;4969490;28;20480;-88
2022/03/14 05:43:55;;;;;;;12.25;8.82;;;;;;;8.16;79.48;101933.81;4983649;28;20045;-88
2022/03/14 05:46:20;;;;;;;12.27;8.35;;;;;;;8.14;79.75;101944.44;4980791;28;20034;-87
2022/03/14 05:48:46;;;;;;;13.25;9.68;;;;;;;8.10;79.71;101934.81;4986235;28;20391;-86
2022/03/14 05:51:11;;;;;;;11.55;9.02;;;;;;;8.16;79.57;101947.94;4988673;28;20030;-87
2022/03/14 05:53:37;;;;;;;12.40;9.10;;;;;;;8.17;79.63;101952.34;4988942;28;20029;-88
2022/03/14 05:56:02;;;;;;;10.75;8.77;;;;;;;8.17;79.66;101954.13;4988759;28;20057;-87
2022/03/14 05:58:27;;;;;;;13.30;9.32;;;;;;;8.14;79.69;101951.53;4986990;28;20174;-86
2022/03/14 06:00:53;;;;;;;11.93;8.88;;;;;;;8.19;79.70;101963.78;4986986;28;20096;-88
2022/03/14 06:03:20;;;;;;;12.05;9.13;;;;;;;8.22;79.51;101970.78;4981672;28;20380;-87
2022/03/14 06:05:48;;;;;;;14.27;9.70;;;;;;;8.21;79.71;101974.34;4988513;28;20173;-89
2022/03/14 06:08:13;;;;;;;13.73;10.18;;;;;;;8.15;79.68;101961.22;4976159;28;20031;-87
2022/03/14 06:10:39;;;;;;;16.45;10.75;;;;;;;8.16;79.92;101966.50;4983653;28;20034;-88
2022/03/14 06:13:04;;;;;;;15.20;9.85;;;;;;;8.18;79.92;101975.28;4985720;28;20100;-88
2022/03/14 06:15:29;;;;;;;14.13;9.95;;;;;;;8.14;80.11;101980.69;4987779;28;20535;-88
2022/03/14 06:17:55;;;;;;;13.40;10.07;;;;;;;8.08;80.10;101971.13;4986899;28;20038;-88
2022/03/14 06:20:20;;;;;;;14.60;9.70;;;;;;;8.07;80.09;101985.28;4976302;28;20034;-86
2022/03/14 06:22:46;;;;;;;14.88;10.43;;;;;;;8.02;80.46;101992.44;4989010;28;20027;-89
2022/03/14 06:25:13;;;;;;;16.15;10.35;;;;;;;7.94;80.09;101986.44;4986527;28;20101;-88
2022/03/14 06:27:39;;;;;;;13.77;9.88;;;;;;;8.04;80.55;102003.03;4979510;28;20270;-86
2022/03/14 06:30:05;;;;;;;15.80;10.63;;;;;;;7.99;80.54;101998.72;4980475;28;20423;-86
2022/03/14 06:32:39;;;;;;;18.40;11.23;;;;;;;8.09;80.32;102015.28;4987865;28;20472;-86
2022/03/14 06:35:07;;;;;;;15.63;10.38;;;;;;;8.10;80.10;102011.72;4987554;28;20231;-86
2022/03/14 06:37:32;;;;;;;15.20;10.73;;;;;;;8.16;79.88;102021.34;4977935;28;20035;-88
2022/03/14 06:39:58;;;;;;;15.10;11.73;;;;;;;8.10;80.07;102011.72;4984532;28;20356;-88
2022/03/14 06:42:23;;;;;;;16.58;11.02;;;;;;;8.19;79.75;102024.78;4986088;28;20121;-87
2022/03/14 06:44:50;;;;;;;16.25;11.15;;;;;;;8.10;80.04;102006.41;4975884;28;20031;-87
2022/03/14 06:47:19;;;;;;;15.13;11.50;;;;;;;8.18;79.85;102015.06;4985224;28;20038;-87
2022/03/14 06:49:45;;;;;;;16.60;10.93;;;;;;;8.28;79.52;102030.78;4987030;28;20396;-87
2022/03/14 06:52:12;;;;;;;19.10;11.93;;;;;;;8.25;79.74;102029.06;4982130;28;20030;-86
2022/03/14 06:54:38;;;;;;;17.30;11.23;;;;;;;8.27;79.45;102021.94;4984098;28;20038;-86
2022/03/14 06:57:04;;;;;;;17.02;11.77;;;;;;;8.23;79.53;102022.91;4985441;28;20447;-86
2022/03/14 06:59:30;;;;;;;17.52;11.80;;;;;;;8.30;79.41;102037.81;4985307;28;20141;-87
2022/03/14 07:01:55;;;;;;;18.60;12.75;;;;;;;8.30;79.50;102045.75;4986328;28;20038;-86
2022/03/14 07:04:20;;;;;;;16.25;12.65;;;;;;;8.30;79.33;102048.41;4974834;28;20030;-85
2022/03/14 07:06:46;;;;;;;17.23;12.02;;;;;;;8.30;79.59;102051.06;4985592;28;20034;-87
2022/03/14 07:09:11;;;;;;;19.88;12.55;;;;;;;8.35;79.50;102050.97;4987564;28;20049;-87
2022/03/14 07:11:37;;;;;;;21.38;12.48;;;;;;;8.37;79.43;102055.38;4987339;28;20027;-87
2022/03/14 07:14:02;;;;;;;18.42;11.55;;;;;;;8.31;78.99;102039.53;4984828;28;20054;-87
2022/03/14 07:16:27;;;;;;;17.67;11.65;;;;;;;8.43;79.29;102054.34;4978562;28;20058;-87
2022/03/14 07:18:53;;;;;;;20.08;12.43;;;;;;;8.43;79.30;102051.69;4986478;28;20030;-86
2022/03/14 07:21:18;;;;;;;20.80;12.38;;;;;;;8.53;79.17;102062.97;4976357;28;20089;-87
2022/03/14 07:23:44;;;;;;;17.70;11.80;;;;;;;8.56;78.89;102060.25;4990525;28;20493;-87
2022/03/14 07:26:10;;;;;;;17.08;12.23;;;;;;;8.61;78.67;102061.91;4973216;28;20479;-88
2022/03/14 07:28:35;;;;;;;18.75;12.82;;;;;;;8.66;78.45;102069.75;4982562;28;20056;-86
2022/03/14 07:31:01;;;;;;;20.38;12.07;;;;;;;8.71;78.19;102075.81;4980074;28;20488;-87
2022/03/14 07:33:28;;;;;;;17.60;12.07;;;;;;;8.73;77.85;102069.53;4991072;28;20773;-84
2022/03/14 07:35:53;;;;;;;17.27;11.70;;;;;;;8.72;77.61;102058.97;4988016;28;20060;-88
2022/03/14 07:38:19;;;;;;;21.38;12.60;;;;;;;8.78;77.46;102064.16;4986524;28;20030;-87
2022/03/14 07:40:45;;;;;;;21.30;12.85;;;;;;;8.86;77.19;102064.84;4990584;28;20544;-87
2022/03/14 07:43:11;;;;;;;17.60;12.32;;;;;;;8.93;77.15;102068.22;4989466;28;20030;-87
2022/03/14 07:45:36;;;;;;;19.50;12.32;;;;;;;8.79;76.79;102046.44;4986613;28;20026;-89
2022/03/14 07:48:01;;;;;;;18.15;11.80;;;;;;;8.92;76.38;102070.00;4975145;28;20093;-83
2022/03/14 07:50:27;;;;;;;16.98;12.15;;;;;;;8.96;76.82;102084.06;4990534;28;20030;-86
2022/03/14 07:52:55;;;;;;;19.65;13.15;;;;;;;8.97;77.03;102092.00;4987018;28;20023;-87
2022/03/14 07:55:21;;;;;;;18.17;12.43;;;;;;;8.99;76.60;102094.63;4989789;28;20018;-86
2022/03/14 07:57:46;;;;;;;22.33;13.05;;;;;;;8.94;76.62;102101.81;4987045;28;20042;-88
2022/03/14 08:00:14;;;;;;;16.05;11.48;;;;;;;8.96;76.81;102103.53;4988139;28;20034;-87
2022/03/14 08:02:40;;;;;;;16.98;11.32;;;;;;;8.91;76.55;102085.97;4990255;28;20032;-89
2022/03/14 08:05:08;;;;;;;16.55;12.15;;;;;;;9.01;76.96;102119.34;4990518;28;20030;-87
2022/03/14 08:07:34;;;;;;;16.08;11.30;;;;;;;9.08;76.71;102118.31;4987329;28;20032;-87
2022/03/14 08:10:04;;;;;;;19.25;12.35;;;;;;;9.15;76.36;102117.22;4989217;28;20388;-87
2022/03/14 08:12:30;;;;;;;22.50;12.18;;;;;;;9.15;75.78;102109.25;4990152;28;20030;-88
2022/03/14 08:14:55;;;;;;;19.95;11.85;;;;;;;9.29;75.52;102121.34;4978270;28;20037;-88
2022/03/14 08:17:20;;;;;;;18.90;12.60;;;;;;;9.26;75.28;102116.97;4977963;28;20093;-87
2022/03/14 08:19:46;;;;;;;19.95;12.27;;;;;;;9.38;75.29;102137.91;4990192;28;20034;-87
2022/03/14 08:22:11;;;;;;;19.13;11.77;;;;;;;9.42;74.63;102110.34;4974854;28;20019;-87
2022/03/14 08:24:37;;;;;;;19.15;12.70;;;;;;;9.58;74.20;102134.75;4980589;28;20034;-86
2022/03/14 08:27:02;;;;;;;18.05;11.55;;;;;;;9.69;73.60;102134.44;4976686;28;20281;-88
2022/03/14 08:29:29;;;;;;;16.27;11.73;;;;;;;9.89;73.35;102142.78;4971302;28;20030;-88
2022/03/14 08:31:54;;;;;;;14.98;10.82;;;;;;;10.00;71.65;102139.84;4984915;28;20546;-89
2022/03/14 08:34:20;;;;;;;16.17;11.10;;;;;;;9.99;72.27;102148.72;4988307;28;20101;-89
2022/03/14 08:36:45;;;;;;;19.38;11.10;;;;;;;9.89;72.01;102134.78;4986888;28;20041;-88
2022/03/14 08:39:11;;;;;;;16.50;10.88;;;;;;;9.95;72.14;102153.25;4990201;28;20508;-89
2022/03/14 08:41:36;;;;;;;17.10;11.88;;;;;;;10.03;72.08;102161.00;4990890;28;20065;-87
2022/03/14 08:44:06;;;;;;;15.15;10.80;;;;;;;10.12;71.30;102136.81;4988746;28;20022;-88
2022/03/14 08:46:32;;;;;;;20.00;11.15;;;;;;;10.47;70.00;102172.22;4985056;28;20639;-88
2022/03/14 08:48:58;;;;;;;19.45;10.75;;;;;;;10.53;70.01;102152.53;4990060;28;20117;-87
2022/03/14 08:51:24;;;;;;;17.15;10.55;;;;;;;10.82;69.54;102171.16;4989449;28;20380;-87
2022/03/14 08:53:49;;;;;;;17.02;10.48;;;;;;;10.99;67.81;102186.59;4988146;28;20018;-86
2022/03/14 08:56:14;;;;;;;15.95;10.45;;;;;;;10.82;68.32;102184.47;4982756;28;20035;-86
2022/03/14 08:58:40;;;;;;;12.75;10.27;;;;;;;10.71;68.20;102184.81;4988591;28;20034;-87
2022/03/14 09:01:07;;;;;;;17.10;9.85;;;;;;;10.52;68.46;102162.31;4976447;28;20520;-86
2022/03/14 09:03:32;;;;;;;14.90;10.27;;;;;;;10.63;68.82;102191.28;4989232;28;20109;-88
2022/03/14 09:05:57;;;;;;;16.27;10.35;;;;;;;10.51;68.80;102203.16;4979795;28;20445;-87
2022/03/14 09:08:24;;;;;;;13.68;10.10;;;;;;;10.31;69.52;102203.72;4969830;28;20133;-87
2022/03/14 09:10:50;;;;;;;13.88;9.73;;;;;;;10.12;70.05;102195.34;4990068;28;20014;-87
2022/03/14 09:13:15;;;;;;;13.90;10.00;;;;;;;10.02;70.64;102195.63;4989747;28;20507;-86
2022/03/14 09:15:41;;;;;;;12.25;9.23;;;;;;;10.05;70.52;102212.38;4987580;28;20030;-89
2022/03/14 09:18:07;;;;;;;17.30;10.00;;;;;;;9.86;70.27;102203.16;4981948;28;20034;-86
2022/03/14 09:20:38;;;;;;;15.85;9.63;;;;;;;10.03;70.33;102230.16;4988162;28;20023;-86
2022/03/14 09:23:04;;;;;;;15.00;9.48;;;;;;;10.37;69.95;102227.53;5004465;28;20058;-86
2022/03/14 09:25:29;;;;;;;15.77;9.45;;;;;;;10.72;68.32;102230.94;4987600;28;20046;-86
2022/03/14 09:27:55;;;;;;;13.52;9.45;;;;;;;10.97;67.72;102233.75;4986072;28;20087;-86
2022/03/14 09:30:21;;;;;;;14.35;9.25;;;;;;;11.42;66.10;102225.25;4980406;28;20455;-86
2022/03/14 09:32:46;;;;;;;16.65;10.02;;;;;;;12.44;64.69;102239.53;4975685;28;20032;-86
2022/03/14 09:35:13;;;;;;;14.45;9.40;;;;;;;13.35;60.40;102237.00;4988465;28;20371;-86
2022/03/14 09:37:40;;;;;;;14.32;8.90;;;;;;;13.08;60.21;102230.88;4988723;28;20459;-88
2022/03/14 09:40:07;;;;;;;14.77;9.68;;;;;;;12.53;60.74;102235.66;4990311;28;20030;-86
2022/03/14 09:42:38;;;;;;;14.68;8.65;;;;;;;12.17;61.94;102246.75;4985076;28;20030;-85
2022/03/14 09:45:09;;;;;;;17.27;9.57;;;;;;;11.73;63.06;102255.31;4976186;28;20061;-86
2022/03/14 09:47:39;;;;;;;18.02;9.73;;;;;;;11.37;64.47;102275.16;4977525;28;20039;-86
2022/03/14 09:50:09;;;;;;;14.80;9.63;;;;;;;11.19;65.05;102258.81;4986318;28;20031;-86
2022/03/14 09:52:36;;;;;;;14.20;9.38;;;;;;;11.27;64.69;102271.91;4983560;28;20034;-86
2022/03/14 09:55:02;;;;;;;13.20;8.38;;;;;;;11.42;63.66;102276.78;4987993;28;20084;-89
2022/03/14 09:57:27;;;;;;;14.65;8.13;;;;;;;11.49;63.49;102277.44;4979965;28;20026;-87
2022/03/14 09:59:53;;;;;;;15.68;7.95;;;;;;;11.50;63.61;102270.34;4984127;28;20026;-87
2022/03/14 10:02:18;;;;;;;10.13;7.68;;;;;;;11.50;62.61;102286.31;4983739;28;20035;-87
2022/03/14 10:04:44;;;;;;;12.10;6.90;;;;;;;11.60;62.66;102295.75;4987933;28;20025;-86
2022/03/14 10:07:09;;;;;;;11.15;7.45;;;;;;;11.52;62.09;102295.13;4983037;28;20262;-85
2022/03/14 10:09:35;;;;;;;16.90;7.35;;;;;;;11.45;62.26;102305.09;4987200;28;20118;-86
2022/03/14 10:12:01;;;;;;;15.32;7.47;;;;;;;11.32;62.68;102301.94;4986944;28;20484;-87
2022/03/14 10:14:26;;;;;;;9.93;6.82;;;;;;;11.19;62.68;102293.47;4989093;28;20793;-86
2022/03/14 10:16:55;;;;;;;12.13;7.55;;;;;;;11.27;62.17;102322.56;4982674;28;20030;-87
2022/03/14 10:19:29;;;;;;;11.45;6.60;;;;;;;10.96;63.19;102290.63;4974556;28;20114;-87
2022/03/14 10:21:54;;;;;;;14.75;6.97;;;;;;;10.88;63.24;102301.50;4982588;28;20117;-88
2022/03/14 10:24:22;;;;;;;11.13;6.75;;;;;;;10.81;64.23;102310.56;4988890;28;20105;-86
2022/03/14 10:26:49;;;;;;;10.50;7.20;;;;;;;10.73;64.92;102321.44;4981397;28;20118;-87
2022/03/14 10:29:14;;;;;;;10.80;7.10;;;;;;;10.68;64.87;102333.16;4987973;28;20113;-87
2022/03/14 10:31:48;;;;;;;9.95;6.90;;;;;;;10.53;65.30;102322.91;4988734;28;20118;-87
2022/03/14 10:34:15;;;;;;;11.55;7.63;;;;;;;10.54;65.37;102338.84;4986172;28;20038;-87
2022/03/14 10:36:46;;;;;;;10.57;6.93;;;;;;;10.61;65.76;102347.53;4988588;28;20030;-90
2022/03/14 10:39:18;;;;;;;13.35;7.38;;;;;;;10.68;65.73;102338.47;4982072;28;20038;-88
2022/03/14 10:41:45;;;;;;;14.10;8.10;;;;;;;10.75;65.48;102340.06;4988695;28;20451;-88
2022/03/14 10:44:22;;;;;;;10.70;7.25;;;;;;;10.71;65.37;102341.06;4992508;28;20038;-88
2022/03/14 10:46:47;;;;;;;14.02;7.75;;;;;;;10.67;65.16;102345.59;4985452;28;20041;-88
2022/03/14 10:49:15;;;;;;;13.35;7.43;;;;;;;10.66;65.45;102359.84;4985779;28;20632;-87
2022/03/14 10:52:05;;;;;;;10.93;7.55;;;;;;;10.63;65.22;102357.25;4976976;28;20037;-89
2022/03/14 10:54:34;;;;;;;12.27;7.25;;;;;;;10.56;65.68;102355.66;4988054;28;20022;-88
2022/03/14 10:57:05;;;;;;;13.23;7.93;;;;;;;10.70;65.61;102364.16;4982480;28;20064;-88
2022/03/14 10:59:36;;;;;;;13.73;7.30;;;;;;;10.82;64.91;102365.59;4990492;28;20467;-88
2022/03/14 11:02:02;;;;;;;16.38;7.75;;;;;;;11.07;64.08;102364.91;4984737;28;20381;-88
2022/03/14 11:04:27;;;;;;;10.98;7.30;;;;;;;11.19;64.09;102375.22;4982734;28;20488;-87
2022/03/14 11:07:02;;;;;;;15.57;7.90;;;;;;;11.42;63.46;102367.41;4975611;28;20038;-87
2022/03/14 11:09:48;;;;;;;9.73;7.07;;;;;;;11.81;62.37;102368.91;4980761;28;20093;-87
2022/03/14 11:12:19;;;;;;;10.35;6.70;;;;;;;12.31;60.00;102369.94;4991737;28;20033;-87
2022/03/14 11:15:02;;;;;;;12.55;6.10;;;;;;;12.30;59.63;102362.00;4978409;28;20066;-87
2022/03/14 11:17:32;;;;;;;11.07;5.50;;;;;;;13.27;56.66;102364.78;4978079;28;20034;-87
2022/03/14 11:19:58;;;;;;;9.05;5.97;;;;;;;14.01;54.42;102362.75;4991992;28;20081;-88